Share

Badlands National Park, SD

RAWS PINNACLES SD US (MPINS2) Elev 3080 ft | 43.88 °N, 102.24 °W | Change Station

Current weather conditions updated 52 minutes ago

Clear
Clear
39 °F
Feels Like 33 °F
N
9
Wind Variable Wind from SE
Gusts 11.0 mph
Sunrise 5:59 AM
Sunset 7:35 PM
Moon Waning Gibbous

Today is forecast to be Much Warmer than yesterday.

Pressure 30.02 in
Visibility 10.0 miles
Clouds Clear
Windchill 33 °F
Dew Point 32 °F
Humidity 75%
Rainfall 0.00 in
Snow Depth Not available.
UV 0 out of 16
Pollen 7.90 out of 12
Air Quality Not available.
Flu Activity Sporadic
METAR KPHP 180655Z AUTO 08007KT 10SM CLR 01/M04 A2999 RMK AO2 SLP165 T00111039 401111022

More Conditions Fewer Conditions

Pressure 30.02 in
Visibility 10.0 miles
Clouds Clear
Windchill 33 °F
Dew Point 32 °F
Humidity 75%
Rainfall 0.00 in
Snow Depth Not available.
UV 0 out of 16
Pollen 7.90 out of 12
Air Quality Not available.
Flu Activity Sporadic
METAR KPHP 180655Z AUTO 08007KT 10SM CLR 01/M04 A2999 RMK AO2 SLP165 T00111039 401111022

More Conditions Fewer Conditions

10-Day Forecast

Almanac

Astronomy

Apr. 18, 2014 Rise Set
Actual Time 5:59 AM MDT 7:35 PM MDT
Civil Twilight 5:29 AM MDT 8:05 PM MDT
Nautical Twilight 4:53 AM MDT 8:42 PM MDT
Astronomical Twilight 4:14 AM MDT 9:21 PM MDT
Moon 11:26 PM MDT 8:19 AM MDT
Length of Visible Light 14h 35m
Length of Day
13h 35m
Tomorrow will be 2m 49s longer.
Waning Gibbous, 90% of the Moon is Illuminated
Today
Waning Gibbous
Apr 22
Last Quarter
Apr 29
New
May 6
First Quarter
May 14
Full

Today's Extremes

State Highs State Lows

Community

  • SUNRISE THROUGH THE TREES.
    SUNRISE THROUGH THE TREES.
  • Dog Wood Blossoms
    Dog Wood Blossoms
  • Morning Light
    Morning Light
  • New Day
    New Day
  • Lake Michigan Sunrise
    Lake Michigan Sunrise

WunderPhotos

Upload Photos

1,702,279 photos uploaded!

WunderBlogs® & News

Nearby

Snow Depth

Station Depth Elevation
North Rapid Creek 22 in 6130 ft
Blind Park 23 in 6890 ft

Coastal Water Temperatures

Place Temperature
No Stations Reporting

Earthquake Activity

City Distance Mag. Time & Date
No recent earthquake activity has been reported nearby.
Minimum magnitude displayed is 2.5.

Nearby Weather Stations

Station Location Temp. Windchill Dew Point Humidity Wind Precip. Elev Updated Type
RAWS PINNACLES SD, Wall, SD 39 °F 33 °F 32 °F 75% SE  at  9 mph 0.00 in / hr 3080 ft 12:20 AM MDT MADIS
NonFedAWOS WALLMUNC , Wall, SD 34 °F 27 °F 27 °F 75% East  at  8 mph 0.00 in / hr 2812 ft 12:15 AM MDT MADIS

Show More Stations Show Fewer Stations

What do you think?

We're not finished. Please let us know what you like, what you don't like, and what you are still missing.